Sangudo, Canada
Current Conditions -  °F | °C
As of 10:00 PM on Friday 24 Oct 2014 (Local Time) from CYZU Reporting Station
Clear Clear  
Wind Chill: 35°   Ceiling: Unl
Heat Index: 39°   Visibility: 15mi
Dew Point: 23°   Wind: 6mph
Humidity: 52%   Direction: 280°W
Pressure: 29.96"   Gusts: NA
Location:  53.88°N, 114.9°W
Report Text: CYZU 250400Z 28005KT 15SM SKC 04/M05 A2996 RMK LAST OBS/NEXT 251200Z SLP174
Loading
Personal Weather Stations






























Interactive Weather Map
Tropical Storm Tracking
New forecast layout! Learn more

10-Day Weather Forecast

Advertisements
Track Severe Weather on mobile